createdAt,value
2023-05-02T00:00:06.089Z,1016.90
2023-05-02T00:00:36.898Z,1016.90
2023-05-02T00:01:07.769Z,1017.00
2023-05-02T00:01:38.724Z,1017.00
2023-05-02T00:02:09.962Z,1016.90
2023-05-02T00:02:41.040Z,1016.90
2023-05-02T00:03:11.545Z,1017.00
2023-05-02T00:03:42.977Z,1017.00
2023-05-02T00:04:14.065Z,1016.80
2023-05-02T00:04:44.613Z,1016.80
2023-05-02T00:05:16.195Z,1016.90
2023-05-02T00:05:46.826Z,1016.90
2023-05-02T00:06:17.828Z,1016.90
2023-05-02T00:06:48.764Z,1016.90
2023-05-02T00:07:19.792Z,1016.80
2023-05-02T00:07:50.792Z,1016.80
2023-05-02T00:08:21.860Z,1017.10
2023-05-02T00:08:52.945Z,1017.10
2023-05-02T00:09:23.768Z,1016.90
2023-05-02T00:09:54.794Z,1016.90
2023-05-02T00:10:25.745Z,1016.90
2023-05-02T00:10:57.104Z,1017.00
2023-05-02T00:11:27.813Z,1017.00
2023-05-02T00:11:58.568Z,1017.00
2023-05-02T00:12:29.599Z,1017.00
2023-05-02T00:13:01.674Z,1016.90
2023-05-02T00:13:31.673Z,1016.90
2023-05-02T00:14:02.863Z,1016.90
2023-05-02T00:14:33.453Z,1016.90
2023-05-02T00:15:05.314Z,1017.00
2023-05-02T00:15:35.436Z,1017.00
2023-05-02T00:16:06.674Z,1016.80
2023-05-02T00:16:37.933Z,1016.80
2023-05-02T00:17:08.841Z,1017.10
2023-05-02T00:17:39.856Z,1017.10
2023-05-02T00:18:10.537Z,1017.00
2023-05-02T00:18:41.517Z,1017.00
2023-05-02T00:19:12.517Z,1016.90
2023-05-02T00:19:43.551Z,1016.90
2023-05-02T00:20:15.034Z,1016.90
2023-05-02T00:20:45.377Z,1016.90
2023-05-02T00:21:16.825Z,1016.90
2023-05-02T00:21:47.553Z,1016.90
2023-05-02T00:22:18.556Z,1017.00
2023-05-02T00:22:49.503Z,1017.00
2023-05-02T00:23:20.590Z,1016.69
2023-05-02T00:23:51.675Z,1016.69
2023-05-02T00:24:22.907Z,1016.90
2023-05-02T00:24:53.788Z,1016.90
2023-05-02T00:25:25.247Z,1017.00
2023-05-02T00:25:55.713Z,1016.69
2023-05-02T00:26:26.878Z,1016.69
2023-05-02T00:26:57.505Z,1017.00
2023-05-02T00:27:28.529Z,1017.00
2023-05-02T00:27:59.763Z,1016.90
2023-05-02T00:28:30.544Z,1016.90
2023-05-02T00:29:01.569Z,1017.00
2023-05-02T00:29:32.508Z,1017.00
2023-05-02T00:30:03.974Z,1016.90
2023-05-02T00:30:34.497Z,1016.90
2023-05-02T00:31:05.559Z,1016.90
2023-05-02T00:31:37.545Z,1016.90
2023-05-02T00:32:07.513Z,1017.00
2023-05-02T00:32:38.622Z,1017.00
2023-05-02T00:33:09.625Z,1017.20
2023-05-02T00:33:40.552Z,1017.20
2023-05-02T00:34:11.625Z,1016.80
2023-05-02T00:34:42.533Z,1016.80
2023-05-02T00:35:13.873Z,1016.90
2023-05-02T00:35:44.745Z,1016.90
2023-05-02T00:36:15.830Z,1017.00
2023-05-02T00:36:46.607Z,1017.00
2023-05-02T00:37:17.677Z,1017.10
2023-05-02T00:37:48.701Z,1017.10
2023-05-02T00:38:19.784Z,1017.00
2023-05-02T00:38:50.871Z,1017.00
2023-05-02T00:39:21.581Z,1016.80
2023-05-02T00:39:53.007Z,1016.80
2023-05-02T00:40:24.408Z,1017.00
2023-05-02T00:40:54.935Z,1017.00
2023-05-02T00:41:25.596Z,1017.00
2023-05-02T00:41:56.928Z,1016.80
2023-05-02T00:42:27.631Z,1016.80
2023-05-02T00:42:58.726Z,1016.90
2023-05-02T00:43:29.908Z,1016.90
2023-05-02T00:44:01.110Z,1016.90
2023-05-02T00:44:34.180Z,1016.90
2023-05-02T00:45:03.200Z,1016.80
2023-05-02T00:45:34.307Z,1016.80
2023-05-02T00:46:04.587Z,1016.80
2023-05-02T00:46:36.632Z,1016.80
2023-05-02T00:47:06.586Z,1017.00
2023-05-02T00:47:37.960Z,1017.00
2023-05-02T00:48:08.803Z,1016.90
2023-05-02T00:48:40.045Z,1016.90
2023-05-02T00:49:11.053Z,1016.90
2023-05-02T00:49:41.870Z,1016.90
2023-05-02T00:50:12.935Z,1016.90
2023-05-02T00:50:43.559Z,1016.90
2023-05-02T00:51:14.797Z,1016.90
2023-05-02T00:51:45.630Z,1016.90
2023-05-02T00:52:16.871Z,1017.00
2023-05-02T00:52:47.900Z,1017.00
2023-05-02T00:53:18.645Z,1016.90
2023-05-02T00:53:49.687Z,1016.90
2023-05-02T00:54:21.333Z,1016.69
2023-05-02T00:54:52.033Z,1016.69
2023-05-02T00:55:23.327Z,1017.20
2023-05-02T00:55:53.926Z,1017.20
2023-05-02T00:56:24.675Z,1016.90
2023-05-02T00:56:55.995Z,1016.90
2023-05-02T00:57:26.785Z,1016.90
2023-05-02T00:57:58.627Z,1016.90
2023-05-02T00:58:28.626Z,1016.90
2023-05-02T00:59:00.095Z,1016.69
2023-05-02T00:59:30.987Z,1016.69
2023-05-02T01:00:02.642Z,1016.90
2023-05-02T01:00:33.056Z,1016.90
2023-05-02T01:01:03.908Z,1016.69
2023-05-02T01:01:35.075Z,1016.69
2023-05-02T01:02:06.053Z,1016.80
2023-05-02T01:02:36.802Z,1016.80
2023-05-02T01:03:07.988Z,1016.80
2023-05-02T01:03:38.997Z,1016.80
2023-05-02T01:04:09.913Z,1016.80
2023-05-02T01:04:40.944Z,1016.80
2023-05-02T01:05:12.324Z,1016.90
2023-05-02T01:05:43.195Z,1016.90
2023-05-02T01:06:13.788Z,1017.00
2023-05-02T01:06:45.090Z,1017.00
2023-05-02T01:07:15.967Z,1016.80
2023-05-02T01:07:46.984Z,1016.80
2023-05-02T01:08:18.050Z,1017.00
2023-05-02T01:08:48.989Z,1017.00
2023-05-02T01:09:20.011Z,1016.80
2023-05-02T01:09:51.064Z,1016.80
2023-05-02T01:10:22.211Z,1016.90
2023-05-02T01:10:52.877Z,1016.90
2023-05-02T01:11:23.823Z,1017.00
2023-05-02T01:11:54.840Z,1016.90
2023-05-02T01:12:25.725Z,1016.90
2023-05-02T01:12:56.808Z,1016.90
2023-05-02T01:13:27.826Z,1016.90
2023-05-02T01:13:58.735Z,1016.80
2023-05-02T01:14:29.955Z,1016.80
2023-05-02T01:15:01.392Z,1016.90
2023-05-02T01:15:31.888Z,1016.90
2023-05-02T01:16:04.970Z,1017.00
2023-05-02T01:16:33.828Z,1017.00
2023-05-02T01:17:06.088Z,1016.90
2023-05-02T01:17:35.823Z,1016.90
2023-05-02T01:18:08.241Z,1016.90
2023-05-02T01:18:38.113Z,1016.90
2023-05-02T01:19:08.771Z,1016.80
2023-05-02T01:19:40.090Z,1016.80
2023-05-02T01:20:11.093Z,1016.90
2023-05-02T01:20:42.031Z,1016.90
2023-05-02T01:21:12.727Z,1017.00
2023-05-02T01:21:43.826Z,1017.00
2023-05-02T01:22:14.789Z,1017.00
2023-05-02T01:22:46.062Z,1017.00
2023-05-02T01:23:16.823Z,1017.10
2023-05-02T01:23:47.968Z,1017.10
2023-05-02T01:24:18.727Z,1016.80
2023-05-02T01:24:49.751Z,1016.80
2023-05-02T01:25:21.941Z,1017.00
2023-05-02T01:25:52.053Z,1017.00
2023-05-02T01:26:23.063Z,1017.00
2023-05-02T01:26:53.965Z,1017.00
2023-05-02T01:27:25.212Z,1016.90
2023-05-02T01:27:56.023Z,1016.90
2023-05-02T01:28:27.399Z,1016.90
2023-05-02T01:28:57.769Z,1016.90
2023-05-02T01:29:28.730Z,1016.90
2023-05-02T01:30:00.016Z,1017.10
2023-05-02T01:30:31.601Z,1017.10
2023-05-02T01:31:01.900Z,1017.00
2023-05-02T01:31:33.171Z,1017.00
2023-05-02T01:32:04.131Z,1017.00
2023-05-02T01:32:35.431Z,1017.00
2023-05-02T01:33:06.004Z,1017.20
2023-05-02T01:33:36.776Z,1017.20
2023-05-02T01:34:07.820Z,1017.10
2023-05-02T01:34:38.944Z,1017.10
2023-05-02T01:35:10.356Z,1017.00
2023-05-02T01:35:40.769Z,1017.00
2023-05-02T01:36:11.762Z,1016.90
2023-05-02T01:36:42.926Z,1016.90
2023-05-02T01:37:14.054Z,1017.00
2023-05-02T01:37:45.186Z,1017.00
2023-05-02T01:38:15.983Z,1017.00
2023-05-02T01:38:47.036Z,1017.00
2023-05-02T01:39:18.170Z,1016.90
2023-05-02T01:39:49.214Z,1016.90
2023-05-02T01:40:21.066Z,1017.10
2023-05-02T01:40:50.661Z,1017.10
2023-05-02T01:41:22.161Z,1017.00
2023-05-02T01:41:53.197Z,1017.00
2023-05-02T01:42:23.815Z,1017.00
2023-05-02T01:42:55.215Z,1017.10
2023-05-02T01:43:26.191Z,1017.10
2023-05-02T01:43:56.833Z,1016.90
2023-05-02T01:44:28.233Z,1016.90
2023-05-02T01:44:58.788Z,1017.10
2023-05-02T01:45:31.008Z,1017.10
2023-05-02T01:46:00.727Z,1017.10
2023-05-02T01:46:32.202Z,1017.10
2023-05-02T01:47:02.881Z,1017.00
2023-05-02T01:47:36.027Z,1017.00
2023-05-02T01:48:04.931Z,1017.30
2023-05-02T01:48:37.001Z,1017.30
2023-05-02T01:49:06.768Z,1017.10
2023-05-02T01:49:38.098Z,1017.10
2023-05-02T01:50:09.025Z,1017.20
2023-05-02T01:50:40.158Z,1017.20
2023-05-02T01:51:10.856Z,1016.90
2023-05-02T01:51:41.890Z,1016.90
2023-05-02T01:52:13.131Z,1017.10
2023-05-02T01:52:43.896Z,1017.10
2023-05-02T01:53:14.960Z,1017.00
2023-05-02T01:53:46.269Z,1017.00
2023-05-02T01:54:16.834Z,1017.10
2023-05-02T01:54:48.048Z,1017.10
2023-05-02T01:55:19.652Z,1017.10
2023-05-02T01:55:50.087Z,1017.10
2023-05-02T01:56:21.269Z,1017.00
2023-05-02T01:56:52.019Z,1017.00
2023-05-02T01:57:23.187Z,1017.10
2023-05-02T01:57:53.900Z,1017.10
2023-05-02T01:58:24.883Z,1017.00
2023-05-02T01:58:56.157Z,1017.10
2023-05-02T01:59:26.891Z,1017.10
2023-05-02T01:59:58.850Z,1017.10
2023-05-02T02:00:30.000Z,1017.10
2023-05-02T02:00:59.876Z,1017.20
2023-05-02T02:01:30.854Z,1017.20
2023-05-02T02:02:01.908Z,1017.10
2023-05-02T02:02:33.161Z,1017.10
2023-05-02T02:03:04.006Z,1017.20
2023-05-02T02:03:35.272Z,1017.20
2023-05-02T02:04:06.261Z,1017.51
2023-05-02T02:04:36.851Z,1017.51
2023-05-02T02:05:08.028Z,1017.00
2023-05-02T02:05:38.834Z,1017.00
2023-05-02T02:06:09.893Z,1017.20
2023-05-02T02:06:40.906Z,1017.20
2023-05-02T02:07:11.914Z,1017.30
2023-05-02T02:07:43.352Z,1017.30
2023-05-02T02:08:14.076Z,1017.00
2023-05-02T02:08:45.269Z,1017.00
2023-05-02T02:09:15.938Z,1017.20
2023-05-02T02:09:46.869Z,1017.20
2023-05-02T02:10:18.636Z,1017.10
2023-05-02T02:10:49.138Z,1017.10
2023-05-02T02:11:20.131Z,1017.20
2023-05-02T02:11:51.220Z,1017.20
2023-05-02T02:12:21.860Z,1017.00
2023-05-02T02:12:53.370Z,1017.00
2023-05-02T02:13:23.897Z,1017.20
2023-05-02T02:13:55.221Z,1017.20
2023-05-02T02:14:26.302Z,1017.20
2023-05-02T02:14:57.299Z,1017.30
2023-05-02T02:15:28.791Z,1017.30
2023-05-02T02:15:58.890Z,1017.20
2023-05-02T02:16:29.948Z,1017.20
2023-05-02T02:17:01.412Z,1017.00
2023-05-02T02:17:31.930Z,1017.00
2023-05-02T02:18:03.349Z,1017.10
2023-05-02T02:18:34.091Z,1017.10
2023-05-02T02:19:06.497Z,1017.41
2023-05-02T02:19:35.896Z,1017.41
2023-05-02T02:20:07.821Z,1017.30
2023-05-02T02:20:37.928Z,1017.30
2023-05-02T02:21:09.068Z,1017.20
2023-05-02T02:21:39.935Z,1017.20
2023-05-02T02:22:11.237Z,1017.20
2023-05-02T02:22:42.032Z,1017.20
2023-05-02T02:23:13.196Z,1017.20
2023-05-02T02:23:44.272Z,1017.20
2023-05-02T02:24:15.569Z,1017.10
2023-05-02T02:24:46.174Z,1017.10
2023-05-02T02:25:18.203Z,1017.10
2023-05-02T02:25:48.262Z,1017.10
2023-05-02T02:26:19.255Z,1017.30
2023-05-02T02:26:50.348Z,1017.30
2023-05-02T02:27:20.977Z,1017.20
2023-05-02T02:27:52.868Z,1017.20
2023-05-02T02:28:22.965Z,1017.10
2023-05-02T02:28:53.933Z,1017.10
2023-05-02T02:29:24.991Z,1017.30
2023-05-02T02:29:56.413Z,1017.20
2023-05-02T02:30:27.512Z,1017.20
2023-05-02T02:30:58.223Z,1017.30
2023-05-02T02:31:29.450Z,1017.30
2023-05-02T02:32:00.152Z,1017.10
2023-05-02T02:32:31.393Z,1017.10
2023-05-02T02:33:02.436Z,1017.41
2023-05-02T02:33:33.326Z,1017.41
2023-05-02T02:34:04.137Z,1017.30
2023-05-02T02:34:34.948Z,1017.30
2023-05-02T02:35:06.614Z,1017.30
2023-05-02T02:35:36.928Z,1017.30
2023-05-02T02:36:08.108Z,1017.20
2023-05-02T02:36:39.014Z,1017.20
2023-05-02T02:37:10.720Z,1017.41
2023-05-02T02:37:41.189Z,1017.41
2023-05-02T02:38:12.265Z,1017.30
2023-05-02T02:38:43.259Z,1017.30
2023-05-02T02:39:14.305Z,1017.30
2023-05-02T02:39:45.228Z,1017.30
2023-05-02T02:40:16.624Z,1017.30
2023-05-02T02:40:47.297Z,1017.30
2023-05-02T02:41:18.373Z,1017.41
2023-05-02T02:41:48.988Z,1017.41
2023-05-02T02:42:19.948Z,1017.30
2023-05-02T02:42:50.976Z,1017.30
2023-05-02T02:43:22.053Z,1017.30
2023-05-02T02:43:53.108Z,1017.30
2023-05-02T02:44:24.165Z,1017.61
2023-05-02T02:44:55.159Z,1017.41
2023-05-02T02:45:27.049Z,1017.41
2023-05-02T02:45:57.209Z,1017.41
2023-05-02T02:46:28.335Z,1017.41
2023-05-02T02:46:59.209Z,1017.51
2023-05-02T02:47:30.505Z,1017.51
2023-05-02T02:48:01.132Z,1017.51
2023-05-02T02:48:32.754Z,1017.51
2023-05-02T02:49:03.216Z,1017.20
2023-05-02T02:49:34.616Z,1017.20
2023-05-02T02:50:05.405Z,1017.41
2023-05-02T02:50:37.929Z,1017.41
2023-05-02T02:51:07.252Z,1017.30
2023-05-02T02:51:39.686Z,1017.30
2023-05-02T02:52:09.067Z,1017.51
2023-05-02T02:52:41.659Z,1017.51
2023-05-02T02:53:11.033Z,1017.51
2023-05-02T02:53:42.467Z,1017.51
2023-05-02T02:54:25.973Z,1017.20
2023-05-02T02:54:43.985Z,1017.20
2023-05-02T02:55:15.459Z,1017.30
2023-05-02T02:55:46.191Z,1017.30
2023-05-02T02:56:16.984Z,1017.41
2023-05-02T02:56:48.236Z,1017.41
2023-05-02T02:57:19.245Z,1017.20
2023-05-02T02:57:50.353Z,1017.20
2023-05-02T02:58:21.320Z,1017.61
2023-05-02T02:58:52.057Z,1017.61
2023-05-02T02:59:23.036Z,1017.30
2023-05-02T02:59:54.417Z,1017.30
2023-05-02T03:00:26.073Z,1017.41
2023-05-02T03:00:56.034Z,1017.10
2023-05-02T03:01:27.255Z,1017.10
2023-05-02T03:01:58.129Z,1017.30
2023-05-02T03:02:29.084Z,1017.30
2023-05-02T03:03:00.179Z,1017.30
2023-05-02T03:03:31.347Z,1017.30
2023-05-02T03:04:02.145Z,1017.51
2023-05-02T03:04:33.222Z,1017.51
2023-05-02T03:05:04.302Z,1017.41
2023-05-02T03:05:35.156Z,1017.41
2023-05-02T03:06:06.148Z,1017.30
2023-05-02T03:06:37.165Z,1017.30
2023-05-02T03:07:08.512Z,1017.41
2023-05-02T03:07:39.385Z,1017.41
2023-05-02T03:08:10.149Z,1017.51
2023-05-02T03:08:41.505Z,1017.51
2023-05-02T03:09:12.087Z,1017.41
2023-05-02T03:09:43.314Z,1017.41
2023-05-02T03:10:15.207Z,1017.71
2023-05-02T03:10:46.112Z,1017.71
2023-05-02T03:11:16.346Z,1017.51
2023-05-02T03:11:47.371Z,1017.51
2023-05-02T03:12:18.254Z,1017.41
2023-05-02T03:12:49.231Z,1017.41
2023-05-02T03:13:20.552Z,1017.30
2023-05-02T03:13:51.452Z,1017.30
2023-05-02T03:14:22.471Z,1017.51
2023-05-02T03:14:53.333Z,1017.51
2023-05-02T03:15:24.990Z,1017.61
2023-05-02T03:15:55.234Z,1017.51
2023-05-02T03:16:26.442Z,1017.51
2023-05-02T03:16:57.470Z,1017.71
2023-05-02T03:17:28.521Z,1017.71
2023-05-02T03:17:59.847Z,1017.51
2023-05-02T03:18:30.507Z,1017.51
2023-05-02T03:19:01.523Z,1017.61
2023-05-02T03:19:32.152Z,1017.61
2023-05-02T03:20:03.655Z,1017.81
2023-05-02T03:20:34.547Z,1017.81
2023-05-02T03:21:05.100Z,1017.51
2023-05-02T03:21:36.159Z,1017.51
2023-05-02T03:22:09.511Z,1017.81
2023-05-02T03:22:38.193Z,1017.81
2023-05-02T03:23:12.043Z,1017.61
2023-05-02T03:23:40.275Z,1017.61
2023-05-02T03:24:11.425Z,1017.81
2023-05-02T03:24:42.144Z,1017.81
2023-05-02T03:25:13.441Z,1017.61
2023-05-02T03:25:44.092Z,1017.61
2023-05-02T03:26:15.183Z,1017.81
2023-05-02T03:26:46.142Z,1017.81
2023-05-02T03:27:17.758Z,1017.91
2023-05-02T03:27:48.637Z,1017.91
2023-05-02T03:28:19.376Z,1017.51
2023-05-02T03:28:50.873Z,1017.51
2023-05-02T03:29:21.519Z,1017.61
2023-05-02T03:29:52.537Z,1017.61
2023-05-02T03:30:24.536Z,1017.71
2023-05-02T03:30:54.244Z,1017.71
2023-05-02T03:31:26.672Z,1017.81
2023-05-02T03:31:56.257Z,1017.51
2023-05-02T03:32:27.882Z,1017.51
2023-05-02T03:32:58.545Z,1017.71
2023-05-02T03:33:29.303Z,1017.71
2023-05-02T03:34:00.481Z,1017.51
2023-05-02T03:34:31.873Z,1017.51
2023-05-02T03:35:02.386Z,1017.71
2023-05-02T03:35:33.134Z,1017.71
2023-05-02T03:36:04.165Z,1017.71
2023-05-02T03:36:35.202Z,1017.71
2023-05-02T03:37:06.414Z,1017.81
2023-05-02T03:37:37.633Z,1017.81
2023-05-02T03:38:08.184Z,1017.81
2023-05-02T03:38:39.385Z,1017.81
2023-05-02T03:39:10.245Z,1017.81
2023-05-02T03:39:41.424Z,1017.81
2023-05-02T03:40:12.655Z,1017.71
2023-05-02T03:40:43.747Z,1017.71
2023-05-02T03:41:14.686Z,1017.81
2023-05-02T03:41:45.666Z,1017.81
2023-05-02T03:42:16.216Z,1017.81
2023-05-02T03:42:47.314Z,1017.81
2023-05-02T03:43:18.567Z,1017.91
2023-05-02T03:43:49.226Z,1017.91
2023-05-02T03:44:20.475Z,1018.01
2023-05-02T03:44:51.670Z,1018.01
2023-05-02T03:45:23.495Z,1017.71
2023-05-02T03:45:53.456Z,1017.71
2023-05-02T03:46:24.420Z,1017.71
2023-05-02T03:46:55.512Z,1017.81
2023-05-02T03:47:26.584Z,1017.81
2023-05-02T03:47:57.621Z,1017.81
2023-05-02T03:48:28.617Z,1017.81
2023-05-02T03:48:59.308Z,1018.08
2023-05-02T03:49:30.613Z,1018.08
2023-05-02T03:50:01.982Z,1017.81
2023-05-02T03:50:32.592Z,1017.81
2023-05-02T03:51:03.936Z,1018.01
2023-05-02T03:51:34.298Z,1018.01
2023-05-02T03:52:05.410Z,1017.81
2023-05-02T03:52:36.908Z,1017.81
2023-05-02T03:53:07.570Z,1017.91
2023-05-02T03:53:39.605Z,1017.91
2023-05-02T03:54:09.670Z,1017.81
2023-05-02T03:54:42.604Z,1017.81
2023-05-02T03:55:12.195Z,1017.81
2023-05-02T03:55:43.343Z,1017.81
2023-05-02T03:56:13.377Z,1018.08
2023-05-02T03:56:44.367Z,1018.08
2023-05-02T03:57:15.391Z,1017.91
2023-05-02T03:57:46.410Z,1017.91
2023-05-02T03:58:17.593Z,1017.91
2023-05-02T03:58:48.669Z,1017.91
2023-05-02T03:59:19.791Z,1017.81
2023-05-02T03:59:51.045Z,1017.81
2023-05-02T04:00:22.016Z,1018.01
2023-05-02T04:00:52.886Z,1018.01
2023-05-02T04:01:23.205Z,1018.01
2023-05-02T04:01:54.868Z,1018.01
2023-05-02T04:02:26.101Z,1017.91
2023-05-02T04:02:56.357Z,1018.01
2023-05-02T04:03:29.973Z,1018.01
2023-05-02T04:03:58.795Z,1017.71
2023-05-02T04:04:30.180Z,1017.71
2023-05-02T04:05:00.696Z,1017.81
2023-05-02T04:05:31.274Z,1017.81
2023-05-02T04:06:02.400Z,1018.01
2023-05-02T04:06:33.544Z,1018.01
2023-05-02T04:07:04.536Z,1018.01
2023-05-02T04:07:36.002Z,1018.01
2023-05-02T04:08:06.890Z,1017.91
2023-05-02T04:08:37.617Z,1017.91
2023-05-02T04:09:08.214Z,1017.91
2023-05-02T04:09:39.666Z,1017.91
2023-05-02T04:10:11.501Z,1018.01
2023-05-02T04:10:41.672Z,1018.01
2023-05-02T04:11:12.581Z,1017.91
2023-05-02T04:11:43.596Z,1017.91
2023-05-02T04:12:14.751Z,1018.08
2023-05-02T04:12:46.153Z,1018.08
2023-05-02T04:13:16.289Z,1018.18
2023-05-02T04:13:47.728Z,1018.18
2023-05-02T04:14:18.730Z,1017.91
2023-05-02T04:14:49.333Z,1017.91
2023-05-02T04:15:21.351Z,1017.91
2023-05-02T04:15:51.582Z,1017.91
2023-05-02T04:16:22.589Z,1018.01
2023-05-02T04:16:53.714Z,1018.01
2023-05-02T04:17:24.620Z,1018.01
2023-05-02T04:17:55.946Z,1018.08
2023-05-02T04:18:26.584Z,1018.08
2023-05-02T04:18:57.679Z,1018.18
2023-05-02T04:19:28.313Z,1018.18
2023-05-02T04:20:01.727Z,1018.08
2023-05-02T04:20:31.060Z,1018.08
2023-05-02T04:21:01.695Z,1018.08
2023-05-02T04:21:32.322Z,1018.08
2023-05-02T04:22:03.419Z,1018.39
2023-05-02T04:22:34.506Z,1018.39
2023-05-02T04:23:05.658Z,1018.18
2023-05-02T04:23:36.431Z,1018.18
2023-05-02T04:24:07.664Z,1018.18
2023-05-02T04:24:38.767Z,1018.18
2023-05-02T04:25:12.703Z,1018.39
2023-05-02T04:25:40.534Z,1018.39
2023-05-02T04:26:13.127Z,1018.39
2023-05-02T04:26:42.423Z,1018.39
2023-05-02T04:27:15.544Z,1018.49
2023-05-02T04:27:44.370Z,1018.49
2023-05-02T04:28:15.752Z,1018.29
2023-05-02T04:28:46.418Z,1018.29
2023-05-02T04:29:17.439Z,1018.49
2023-05-02T04:29:48.407Z,1018.49
2023-05-02T04:30:20.853Z,1018.39
2023-05-02T04:30:50.594Z,1018.39
2023-05-02T04:31:22.713Z,1018.39
2023-05-02T04:31:52.575Z,1018.39
2023-05-02T04:32:23.582Z,1018.39
2023-05-02T04:32:54.866Z,1018.39
2023-05-02T04:33:25.665Z,1018.29
2023-05-02T04:33:56.627Z,1018.29
2023-05-02T04:34:27.403Z,1018.29
2023-05-02T04:34:58.876Z,1018.49
2023-05-02T04:35:30.067Z,1018.49
2023-05-02T04:36:00.354Z,1018.49
2023-05-02T04:36:31.725Z,1018.49
2023-05-02T04:37:02.514Z,1018.49
2023-05-02T04:37:33.645Z,1018.49
2023-05-02T04:38:04.628Z,1018.39
2023-05-02T04:38:35.553Z,1018.39
2023-05-02T04:39:06.876Z,1018.39
2023-05-02T04:39:37.435Z,1018.39
2023-05-02T04:40:08.670Z,1018.69
2023-05-02T04:40:39.549Z,1018.69
2023-05-02T04:41:10.486Z,1018.69
2023-05-02T04:41:41.601Z,1018.69
2023-05-02T04:42:12.872Z,1018.49
2023-05-02T04:42:44.112Z,1018.49
2023-05-02T04:43:14.837Z,1018.69
2023-05-02T04:43:45.952Z,1018.69
2023-05-02T04:44:16.847Z,1018.49
2023-05-02T04:44:47.891Z,1018.49
2023-05-02T04:45:20.144Z,1018.49
2023-05-02T04:45:49.581Z,1018.49
2023-05-02T04:46:20.627Z,1018.59
2023-05-02T04:46:51.870Z,1018.59
2023-05-02T04:47:22.721Z,1018.29
2023-05-02T04:47:53.935Z,1018.29
2023-05-02T04:48:24.501Z,1018.49
2023-05-02T04:48:56.523Z,1018.79
2023-05-02T04:49:26.815Z,1018.79
2023-05-02T04:49:57.813Z,1018.59
2023-05-02T04:50:28.710Z,1018.59
2023-05-02T04:50:59.834Z,1018.69
2023-05-02T04:51:30.894Z,1018.69
2023-05-02T04:52:01.853Z,1018.49
2023-05-02T04:52:32.455Z,1018.49
2023-05-02T04:53:04.194Z,1018.49
2023-05-02T04:53:34.605Z,1018.49
2023-05-02T04:54:05.520Z,1018.69
2023-05-02T04:54:36.588Z,1018.69
2023-05-02T04:55:07.986Z,1018.69
2023-05-02T04:55:38.678Z,1018.69
2023-05-02T04:56:09.705Z,1018.69
2023-05-02T04:56:42.744Z,1018.69
2023-05-02T04:57:11.701Z,1018.59
2023-05-02T04:57:45.146Z,1018.59
2023-05-02T04:58:14.001Z,1018.90
2023-05-02T04:58:45.032Z,1018.90
2023-05-02T04:59:15.644Z,1018.69
2023-05-02T04:59:46.459Z,1018.69
2023-05-02T05:00:18.284Z,1018.49
2023-05-02T05:00:48.874Z,1018.49
2023-05-02T05:01:19.869Z,1018.69
2023-05-02T05:01:50.511Z,1018.69
2023-05-02T05:02:21.675Z,1018.49
2023-05-02T05:02:52.565Z,1018.49
2023-05-02T05:03:23.658Z,1018.69
2023-05-02T05:03:54.902Z,1018.69
2023-05-02T05:04:25.497Z,1018.79
2023-05-02T05:04:57.188Z,1018.90
2023-05-02T05:05:28.087Z,1018.90
2023-05-02T05:05:58.596Z,1018.69
2023-05-02T05:06:29.879Z,1018.69
2023-05-02T05:07:00.866Z,1018.79
2023-05-02T05:07:31.870Z,1018.79
2023-05-02T05:08:02.532Z,1018.69
2023-05-02T05:08:33.883Z,1018.69
2023-05-02T05:09:04.833Z,1018.69
2023-05-02T05:09:35.582Z,1018.69
2023-05-02T05:10:06.822Z,1018.69
2023-05-02T05:10:37.756Z,1018.69
2023-05-02T05:11:08.665Z,1018.90
2023-05-02T05:11:39.657Z,1018.90
2023-05-02T05:12:10.674Z,1018.79
2023-05-02T05:12:41.575Z,1018.79
2023-05-02T05:13:12.976Z,1018.69
2023-05-02T05:13:43.903Z,1018.69
2023-05-02T05:14:14.898Z,1018.69
2023-05-02T05:14:45.589Z,1018.69
2023-05-02T05:15:17.356Z,1018.69
2023-05-02T05:15:47.766Z,1018.69
2023-05-02T05:16:18.685Z,1018.79
2023-05-02T05:16:49.642Z,1018.79
2023-05-02T05:17:20.612Z,1018.79
2023-05-02T05:17:52.045Z,1018.79
2023-05-02T05:18:22.810Z,1019.00
2023-05-02T05:18:53.968Z,1019.00
2023-05-02T05:19:24.819Z,1018.90
2023-05-02T05:19:55.912Z,1018.79
2023-05-02T05:20:27.171Z,1018.79
2023-05-02T05:20:57.964Z,1018.79
2023-05-02T05:21:28.941Z,1018.79
2023-05-02T05:21:59.930Z,1019.00
2023-05-02T05:22:30.609Z,1019.00
2023-05-02T05:23:01.837Z,1019.10
2023-05-02T05:23:32.636Z,1019.10
2023-05-02T05:24:03.671Z,1019.10
2023-05-02T05:24:34.793Z,1019.10
2023-05-02T05:25:05.997Z,1018.90
2023-05-02T05:25:36.829Z,1018.90
2023-05-02T05:26:08.090Z,1018.90
2023-05-02T05:26:38.598Z,1018.90
2023-05-02T05:27:09.508Z,1019.00
2023-05-02T05:27:40.745Z,1019.00
2023-05-02T05:28:13.702Z,1018.79
2023-05-02T05:28:42.686Z,1018.79
2023-05-02T05:29:15.673Z,1018.90
2023-05-02T05:29:44.778Z,1018.90
2023-05-02T05:30:17.485Z,1019.20
2023-05-02T05:30:47.005Z,1019.20
2023-05-02T05:31:17.636Z,1018.90
2023-05-02T05:31:49.076Z,1018.90
2023-05-02T05:32:19.617Z,1019.00
2023-05-02T05:32:51.223Z,1019.00
2023-05-02T05:33:22.112Z,1018.69
2023-05-02T05:33:53.084Z,1018.69
2023-05-02T05:34:23.827Z,1018.79
2023-05-02T05:34:54.928Z,1018.79
2023-05-02T05:35:26.510Z,1019.00
2023-05-02T05:35:56.755Z,1018.90
2023-05-02T05:36:27.887Z,1018.90
2023-05-02T05:36:58.871Z,1018.90
2023-05-02T05:37:30.245Z,1018.90
2023-05-02T05:38:00.733Z,1018.79
2023-05-02T05:38:31.844Z,1018.79
2023-05-02T05:39:02.606Z,1018.90
2023-05-02T05:39:33.986Z,1018.90
2023-05-02T05:40:05.252Z,1019.20
2023-05-02T05:40:35.829Z,1019.20
2023-05-02T05:41:06.744Z,1019.00
2023-05-02T05:41:37.833Z,1019.00
2023-05-02T05:42:08.748Z,1019.20
2023-05-02T05:42:40.004Z,1019.20
2023-05-02T05:43:10.815Z,1018.90
2023-05-02T05:43:41.953Z,1018.90
2023-05-02T05:44:12.991Z,1019.00
2023-05-02T05:45:15.679Z,1018.90
2023-05-02T05:45:46.032Z,1018.90
2023-05-02T05:46:17.047Z,1019.10
2023-05-02T05:46:47.744Z,1019.10
2023-05-02T05:47:19.157Z,1019.00
2023-05-02T05:47:50.103Z,1019.00
2023-05-02T05:48:20.896Z,1019.00
2023-05-02T05:48:51.916Z,1019.00
2023-05-02T05:49:22.784Z,1019.10
2023-05-02T05:49:54.712Z,1019.10
2023-05-02T05:50:25.335Z,1019.30
2023-05-02T05:50:55.836Z,1019.10
2023-05-02T05:51:26.914Z,1019.10
2023-05-02T05:51:57.988Z,1019.20
2023-05-02T05:52:29.135Z,1019.20
2023-05-02T05:52:59.999Z,1019.10
2023-05-02T05:53:31.114Z,1019.10
2023-05-02T05:54:02.097Z,1018.90
2023-05-02T05:54:33.150Z,1018.90
2023-05-02T05:55:04.300Z,1019.10
2023-05-02T05:55:37.267Z,1019.10
2023-05-02T05:56:05.655Z,1018.90
2023-05-02T05:56:36.744Z,1018.90
2023-05-02T05:57:08.209Z,1018.90
2023-05-02T05:57:38.935Z,1018.90
2023-05-02T05:58:09.825Z,1019.10
2023-05-02T05:58:40.797Z,1019.10
2023-05-02T05:59:12.071Z,1019.20
2023-05-02T05:59:45.455Z,1019.20
2023-05-02T06:00:14.766Z,1019.40
2023-05-02T06:00:45.862Z,1019.40
2023-05-02T06:01:15.754Z,1019.40
2023-05-02T06:01:50.927Z,1019.40
2023-05-02T06:02:17.839Z,1019.20
2023-05-02T06:02:49.551Z,1019.20
2023-05-02T06:03:20.046Z,1019.20
2023-05-02T06:03:51.007Z,1019.20
2023-05-02T06:04:21.826Z,1019.40
2023-05-02T06:04:52.995Z,1019.40
2023-05-02T06:05:24.528Z,1019.40
2023-05-02T06:05:55.101Z,1019.40
2023-05-02T06:06:26.041Z,1019.30
2023-05-02T06:06:57.241Z,1019.30
2023-05-02T06:07:28.056Z,1019.30
2023-05-02T06:07:59.255Z,1019.10
2023-05-02T06:08:30.207Z,1019.10
2023-05-02T06:09:00.718Z,1019.30
2023-05-02T06:09:31.695Z,1019.30
2023-05-02T06:10:03.234Z,1019.30
2023-05-02T06:10:34.280Z,1019.30
2023-05-02T06:11:04.943Z,1019.30
2023-05-02T06:11:35.888Z,1019.30
2023-05-02T06:12:06.892Z,1019.30
2023-05-02T06:12:37.816Z,1019.30
2023-05-02T06:13:09.136Z,1019.30
2023-05-02T06:13:40.326Z,1019.30
2023-05-02T06:14:10.836Z,1019.40
2023-05-02T06:14:41.867Z,1019.40
2023-05-02T06:15:13.597Z,1019.30